createdAt,value
2019-01-08T00:01:33.314Z,3.13
2019-01-08T00:04:01.656Z,2.57
2019-01-08T00:06:29.984Z,3.57
2019-01-08T00:08:58.325Z,2.73
2019-01-08T00:11:26.671Z,2.90
2019-01-08T00:13:55.008Z,3.83
2019-01-08T00:16:23.352Z,3.87
2019-01-08T00:18:51.688Z,2.33
2019-01-08T00:21:20.035Z,2.50
2019-01-08T00:23:48.377Z,2.70
2019-01-08T00:26:16.726Z,3.30
2019-01-08T00:28:46.957Z,2.60
2019-01-08T00:31:15.302Z,3.20
2019-01-08T00:33:43.644Z,2.80
2019-01-08T00:36:11.981Z,3.57
2019-01-08T00:38:40.333Z,2.43
2019-01-08T00:41:08.674Z,3.57
2019-01-08T00:43:37.016Z,3.63
2019-01-08T00:46:05.369Z,2.80
2019-01-08T00:48:33.725Z,3.97
2019-01-08T00:51:02.072Z,3.67
2019-01-08T00:53:30.433Z,2.97
2019-01-08T00:55:58.925Z,3.33
2019-01-08T00:58:27.263Z,2.27
2019-01-08T01:00:55.620Z,2.97
2019-01-08T01:03:23.954Z,2.13
2019-01-08T01:05:52.302Z,3.63
2019-01-08T01:08:20.642Z,3.27
2019-01-08T01:10:48.977Z,1.60
2019-01-08T01:13:17.312Z,3.77
2019-01-08T01:15:47.568Z,1.90
2019-01-08T01:18:15.909Z,2.77
2019-01-08T01:20:44.250Z,3.53
2019-01-08T01:23:12.595Z,2.33
2019-01-08T01:25:40.932Z,3.73
2019-01-08T01:28:09.280Z,2.43
2019-01-08T01:30:38.862Z,4.33
2019-01-08T01:33:07.245Z,3.07
2019-01-08T01:35:35.572Z,1.80
2019-01-08T01:38:03.916Z,3.23
2019-01-08T01:40:32.261Z,3.67
2019-01-08T01:43:00.597Z,3.03
2019-01-08T01:45:28.958Z,2.73
2019-01-08T01:47:57.299Z,3.23
2019-01-08T01:50:25.650Z,2.50
2019-01-08T01:52:54.001Z,2.47
2019-01-08T01:55:22.342Z,2.37
2019-01-08T01:57:50.673Z,2.30
2019-01-08T02:00:19.025Z,2.97
2019-01-08T02:02:47.374Z,3.13
2019-01-08T02:05:15.718Z,2.50
2019-01-08T02:07:44.044Z,2.87
2019-01-08T02:10:12.417Z,2.70
2019-01-08T02:12:40.756Z,3.07
2019-01-08T02:15:09.103Z,2.63
2019-01-08T02:17:37.425Z,1.73
2019-01-08T02:20:06.032Z,3.23
2019-01-08T02:22:34.383Z,2.77
2019-01-08T02:25:02.723Z,3.73
2019-01-08T02:27:31.065Z,2.30
2019-01-08T02:29:59.424Z,2.87
2019-01-08T02:32:27.782Z,3.20
2019-01-08T02:34:56.197Z,3.70
2019-01-08T02:37:24.553Z,2.27
2019-01-08T02:39:54.057Z,2.87
2019-01-08T02:42:22.399Z,2.53
2019-01-08T02:44:50.984Z,2.70
2019-01-08T02:47:20.728Z,2.07
2019-01-08T02:49:49.078Z,3.20
2019-01-08T02:52:17.422Z,2.87
2019-01-08T02:54:45.819Z,3.17
2019-01-08T02:57:14.380Z,3.07
2019-01-08T02:59:42.731Z,4.13
2019-01-08T03:02:11.058Z,2.50
2019-01-08T03:04:39.396Z,4.33
2019-01-08T03:07:07.734Z,3.63
2019-01-08T03:09:37.843Z,1.73
2019-01-08T03:12:07.785Z,3.33
2019-01-08T03:14:36.122Z,2.13
2019-01-08T03:17:04.465Z,2.40
2019-01-08T03:19:33.709Z,3.13
2019-01-08T03:22:02.061Z,2.67
2019-01-08T03:24:30.402Z,3.17
2019-01-08T03:27:00.010Z,3.13
2019-01-08T03:29:33.470Z,1.13
2019-01-08T03:31:58.780Z,2.53
2019-01-08T03:34:27.698Z,3.50
2019-01-08T03:36:56.024Z,1.70
2019-01-08T03:39:24.367Z,1.23
2019-01-08T03:41:53.170Z,3.00
2019-01-08T03:44:21.516Z,0.90
2019-01-08T03:46:49.859Z,2.43
2019-01-08T03:49:18.205Z,2.67
2019-01-08T03:51:46.551Z,4.00
2019-01-08T03:54:14.880Z,3.53
2019-01-08T03:56:43.225Z,1.43
2019-01-08T03:59:11.579Z,3.00
2019-01-08T04:01:39.924Z,3.80
2019-01-08T04:04:08.262Z,2.50
2019-01-08T04:06:36.611Z,3.43
2019-01-08T04:09:05.413Z,3.50
2019-01-08T04:11:33.759Z,1.83
2019-01-08T04:14:02.090Z,3.40
2019-01-08T04:16:30.430Z,1.50
2019-01-08T04:18:58.772Z,1.87
2019-01-08T04:21:27.101Z,2.97
2019-01-08T04:23:55.445Z,2.97
2019-01-08T04:26:24.763Z,3.50
2019-01-08T04:28:53.099Z,2.57
2019-01-08T04:31:21.438Z,3.10
2019-01-08T04:33:49.794Z,3.53
2019-01-08T04:36:18.131Z,1.40
2019-01-08T04:38:46.464Z,3.03
2019-01-08T04:41:14.837Z,2.50
2019-01-08T04:43:43.180Z,4.30
2019-01-08T04:46:11.522Z,3.83
2019-01-08T04:48:41.143Z,2.80
2019-01-08T04:51:09.486Z,2.03
2019-01-08T04:53:37.829Z,3.40
2019-01-08T04:56:06.167Z,2.40
2019-01-08T04:58:34.513Z,2.50
2019-01-08T05:01:03.161Z,2.83
2019-01-08T05:03:31.506Z,4.00
2019-01-08T05:05:59.928Z,3.30
2019-01-08T05:08:30.116Z,3.40
2019-01-08T05:10:58.469Z,2.80
2019-01-08T05:13:26.802Z,4.17
2019-01-08T05:15:55.151Z,3.43
2019-01-08T05:18:23.489Z,3.23
2019-01-08T05:20:52.101Z,4.13
2019-01-08T05:23:22.743Z,4.47
2019-01-08T05:25:51.071Z,4.23
2019-01-08T05:28:19.428Z,2.03
2019-01-08T05:30:49.354Z,3.17
2019-01-08T05:33:17.701Z,4.10
2019-01-08T05:35:46.044Z,3.40
2019-01-08T05:38:15.034Z,4.07
2019-01-08T05:40:43.383Z,2.27
2019-01-08T05:43:11.742Z,2.93
2019-01-08T05:45:40.075Z,2.80
2019-01-08T05:48:10.204Z,3.00
2019-01-08T05:50:38.983Z,2.97
2019-01-08T05:53:07.323Z,2.97
2019-01-08T05:55:37.172Z,1.50
2019-01-08T05:58:07.110Z,2.97
2019-01-08T06:00:35.456Z,3.10
2019-01-08T06:03:03.804Z,3.00
2019-01-08T06:05:32.136Z,2.17
2019-01-08T06:08:00.474Z,3.20
2019-01-08T06:10:28.822Z,3.17
2019-01-08T06:12:57.159Z,2.47
2019-01-08T06:15:25.505Z,2.70
2019-01-08T06:17:54.821Z,2.20
2019-01-08T06:20:23.162Z,2.77
2019-01-08T06:22:51.506Z,2.00
2019-01-08T06:25:19.850Z,1.97
2019-01-08T06:27:50.917Z,2.07
2019-01-08T06:30:24.933Z,1.83
2019-01-08T06:32:52.318Z,2.00
2019-01-08T06:35:20.654Z,2.50
2019-01-08T06:37:49.806Z,2.13
2019-01-08T06:40:18.146Z,2.57
2019-01-08T06:42:47.684Z,3.10
2019-01-08T06:45:16.009Z,1.60
2019-01-08T06:47:45.632Z,1.70
2019-01-08T06:50:13.975Z,1.60
2019-01-08T06:52:43.751Z,2.97
2019-01-08T06:55:13.596Z,1.60
2019-01-08T06:57:41.945Z,1.23
2019-01-08T07:00:10.287Z,1.63
2019-01-08T07:02:39.270Z,1.43
2019-01-08T07:05:07.609Z,1.53
2019-01-08T07:07:38.061Z,2.23
2019-01-08T07:10:07.750Z,3.47
2019-01-08T07:12:36.103Z,4.23
2019-01-08T07:15:05.097Z,3.97
2019-01-08T07:17:34.988Z,4.50
2019-01-08T07:20:03.703Z,3.83
2019-01-08T07:22:32.042Z,4.27
2019-01-08T07:25:01.048Z,3.93
2019-01-08T07:27:29.376Z,4.40
2019-01-08T07:29:59.184Z,4.00
2019-01-08T07:32:28.745Z,3.53
2019-01-08T07:34:57.086Z,4.23
2019-01-08T07:37:25.430Z,2.90
2019-01-08T07:39:53.762Z,3.07
2019-01-08T07:42:23.173Z,2.87
2019-01-08T07:44:51.514Z,2.70
2019-01-08T07:47:19.852Z,2.77
2019-01-08T07:49:48.261Z,2.87
2019-01-08T07:52:16.676Z,2.20
2019-01-08T07:54:45.000Z,2.40
2019-01-08T07:57:13.350Z,3.30
2019-01-08T07:59:41.677Z,2.50
2019-01-08T08:02:10.016Z,2.10
2019-01-08T08:04:38.366Z,2.50
2019-01-08T08:07:06.713Z,2.03
2019-01-08T08:09:35.058Z,2.63
2019-01-08T08:12:04.072Z,1.63
2019-01-08T08:14:32.411Z,2.77
2019-01-08T08:17:00.757Z,3.40
2019-01-08T08:19:29.102Z,5.03
2019-01-08T08:21:57.455Z,3.43
2019-01-08T08:24:25.801Z,4.60
2019-01-08T08:26:55.500Z,2.73
2019-01-08T08:29:23.853Z,4.00
2019-01-08T08:31:52.254Z,2.87
2019-01-08T08:34:20.685Z,3.47
2019-01-08T08:36:49.009Z,2.27
2019-01-08T08:39:17.333Z,2.37
2019-01-08T08:41:45.661Z,4.77
2019-01-08T08:44:14.010Z,4.03
2019-01-08T08:46:42.349Z,2.73
2019-01-08T08:49:10.726Z,1.90
2019-01-08T08:51:39.118Z,3.33
2019-01-08T08:54:07.461Z,3.27
2019-01-08T08:56:35.801Z,4.27
2019-01-08T08:59:04.148Z,3.13
2019-01-08T09:01:32.497Z,3.43
2019-01-08T09:04:00.825Z,4.10
2019-01-08T09:06:29.645Z,2.47
2019-01-08T09:08:57.982Z,4.77
2019-01-08T09:11:26.324Z,5.23
2019-01-08T09:13:54.657Z,3.60
2019-01-08T09:16:23.013Z,3.70
2019-01-08T09:18:51.345Z,3.33
2019-01-08T09:21:19.691Z,4.77
2019-01-08T09:23:48.030Z,4.13
2019-01-08T09:26:16.369Z,4.50
2019-01-08T09:28:44.720Z,2.40
2019-01-08T09:31:15.545Z,1.70
2019-01-08T09:33:43.152Z,3.90
2019-01-08T09:36:11.511Z,4.40
2019-01-08T09:38:41.065Z,2.57
2019-01-08T09:41:10.254Z,4.43
2019-01-08T09:43:38.606Z,3.40
2019-01-08T09:46:06.942Z,5.33
2019-01-08T09:48:35.649Z,4.77
2019-01-08T09:51:04.004Z,4.37
2019-01-08T09:53:32.348Z,3.50
2019-01-08T09:56:00.689Z,5.47
2019-01-08T09:58:29.030Z,3.20
2019-01-08T10:00:58.446Z,2.63
2019-01-08T10:03:26.793Z,5.20
2019-01-08T10:05:56.506Z,3.77
2019-01-08T10:08:25.189Z,4.60
2019-01-08T10:10:53.517Z,4.07
2019-01-08T10:13:21.861Z,3.17
2019-01-08T10:15:50.213Z,5.53
2019-01-08T10:18:18.548Z,4.30
2019-01-08T10:20:46.898Z,5.57
2019-01-08T10:23:15.253Z,3.93
2019-01-08T10:25:43.589Z,3.90
2019-01-08T10:28:11.934Z,3.20
2019-01-08T10:30:40.291Z,4.83
2019-01-08T10:33:08.636Z,3.60
2019-01-08T10:35:36.977Z,5.13
2019-01-08T10:38:05.325Z,4.63
2019-01-08T10:40:34.730Z,4.13
2019-01-08T10:43:03.074Z,2.63
2019-01-08T10:45:31.477Z,2.73
2019-01-08T10:47:59.890Z,3.67
2019-01-08T10:50:28.250Z,3.40
2019-01-08T10:52:56.587Z,5.13
2019-01-08T10:55:24.954Z,5.33
2019-01-08T10:57:53.366Z,3.93
2019-01-08T11:00:22.865Z,5.63
2019-01-08T11:02:51.216Z,2.60
2019-01-08T11:05:19.548Z,4.33
2019-01-08T11:07:47.959Z,4.17
2019-01-08T11:10:16.302Z,4.77
2019-01-08T11:12:44.631Z,2.27
2019-01-08T11:15:12.973Z,3.10
2019-01-08T11:17:41.316Z,4.70
2019-01-08T11:20:09.666Z,5.00
2019-01-08T11:22:39.345Z,2.40
2019-01-08T11:25:09.369Z,3.80
2019-01-08T11:27:40.770Z,3.33
2019-01-08T11:30:12.119Z,3.73
2019-01-08T11:32:40.478Z,4.30
2019-01-08T11:35:08.797Z,3.93
2019-01-08T11:37:37.161Z,4.20
2019-01-08T11:40:06.669Z,3.87
2019-01-08T11:42:35.255Z,3.07
2019-01-08T11:45:05.445Z,2.93
2019-01-08T11:47:33.789Z,4.27
2019-01-08T11:50:02.398Z,3.97
2019-01-08T11:52:31.066Z,2.63
2019-01-08T11:54:59.405Z,2.87
2019-01-08T11:57:29.394Z,3.33
2019-01-08T11:59:57.953Z,4.13
2019-01-08T12:02:26.374Z,2.67
2019-01-08T12:04:54.717Z,3.57
2019-01-08T12:07:30.947Z,3.63
2019-01-08T12:09:54.181Z,3.87
2019-01-08T12:12:24.851Z,3.13
2019-01-08T12:14:53.971Z,4.73
2019-01-08T12:17:22.357Z,3.67
2019-01-08T12:19:50.686Z,3.47
2019-01-08T12:22:19.036Z,3.57
2019-01-08T12:24:48.452Z,4.17
2019-01-08T12:27:16.792Z,3.27
2019-01-08T12:29:45.223Z,4.93
2019-01-08T12:32:13.567Z,4.10
2019-01-08T12:34:41.910Z,3.27
2019-01-08T12:37:10.249Z,3.73
2019-01-08T12:39:40.158Z,3.60
2019-01-08T12:42:08.589Z,4.77
2019-01-08T12:44:36.949Z,4.87
2019-01-08T12:47:08.382Z,1.73
2019-01-08T12:49:36.797Z,5.47
2019-01-08T12:52:05.129Z,4.37
2019-01-08T12:54:33.473Z,5.77
2019-01-08T12:57:01.809Z,4.67
2019-01-08T12:59:30.214Z,3.57
2019-01-08T13:01:58.565Z,3.43
2019-01-08T13:04:26.906Z,4.43
2019-01-08T13:06:55.233Z,3.87
2019-01-08T13:09:23.581Z,3.67
2019-01-08T13:11:53.293Z,3.53
2019-01-08T13:14:21.730Z,3.27
2019-01-08T13:16:50.549Z,4.40
2019-01-08T13:19:18.895Z,3.83
2019-01-08T13:21:47.234Z,3.83
2019-01-08T13:24:15.585Z,4.07
2019-01-08T13:26:43.921Z,3.93
2019-01-08T13:29:12.258Z,3.33
2019-01-08T13:31:40.613Z,4.10
2019-01-08T13:34:09.092Z,3.57
2019-01-08T13:36:37.616Z,3.60
2019-01-08T13:39:06.422Z,4.13
2019-01-08T13:41:37.765Z,2.23
2019-01-08T13:44:06.191Z,3.80
2019-01-08T13:46:34.541Z,3.50
2019-01-08T13:49:03.966Z,4.10
2019-01-08T13:51:33.164Z,3.67
2019-01-08T13:54:01.500Z,2.77
2019-01-08T13:56:29.902Z,5.20
2019-01-08T13:58:59.322Z,3.30
2019-01-08T14:01:27.728Z,3.20
2019-01-08T14:03:56.134Z,2.90
2019-01-08T14:06:24.473Z,2.30
2019-01-08T14:08:52.816Z,3.30
2019-01-08T14:11:21.155Z,2.83
2019-01-08T14:13:49.573Z,3.67
2019-01-08T14:16:17.974Z,2.47
2019-01-08T14:18:46.380Z,2.67
2019-01-08T14:21:14.728Z,2.60
2019-01-08T14:23:43.061Z,3.53
2019-01-08T14:26:11.412Z,2.70
2019-01-08T14:28:40.535Z,2.87
2019-01-08T14:31:09.758Z,2.97
2019-01-08T14:33:38.096Z,4.07
2019-01-08T14:36:06.443Z,3.93
2019-01-08T14:38:55.085Z,3.60
2019-01-08T14:41:22.095Z,3.33
2019-01-08T14:43:57.823Z,1.87
2019-01-08T14:46:30.504Z,3.17
2019-01-08T14:49:03.832Z,2.23
2019-01-08T14:51:32.168Z,2.13
2019-01-08T14:54:04.793Z,2.57
2019-01-08T14:56:33.137Z,3.13
2019-01-08T14:59:01.490Z,1.93
2019-01-08T15:01:37.129Z,3.23
2019-01-08T15:04:08.514Z,2.57
2019-01-08T15:06:37.345Z,2.50
2019-01-08T15:09:06.130Z,4.70
2019-01-08T15:11:36.893Z,3.00
2019-01-08T15:14:11.776Z,2.13
2019-01-08T15:16:50.011Z,3.70
2019-01-08T15:19:24.865Z,3.10
2019-01-08T15:21:53.194Z,3.47
2019-01-08T15:24:27.960Z,2.90
2019-01-08T15:26:59.130Z,3.13
2019-01-08T15:29:30.146Z,3.03
2019-01-08T15:32:02.058Z,2.67
2019-01-08T15:34:31.872Z,2.70
2019-01-08T15:37:00.657Z,1.97
2019-01-08T15:39:30.301Z,2.87
2019-01-08T15:41:58.992Z,3.43
2019-01-08T15:44:27.341Z,3.20
2019-01-08T15:46:55.678Z,17.03
2019-01-08T15:49:24.030Z,43.60
2019-01-08T15:51:52.445Z,36.33
2019-01-08T15:54:20.809Z,26.80
2019-01-08T15:56:49.154Z,19.53
2019-01-08T15:59:18.773Z,7.60
2019-01-08T16:01:48.095Z,13.07
2019-01-08T16:04:20.282Z,15.07
2019-01-08T16:06:48.799Z,13.70
2019-01-08T16:09:17.135Z,9.10
2019-01-08T16:11:46.322Z,5.13
2019-01-08T16:14:14.658Z,4.03
2019-01-08T16:16:43.315Z,7.23
2019-01-08T16:19:11.653Z,7.53
2019-01-08T16:21:39.993Z,6.87
2019-01-08T16:24:08.339Z,6.17
2019-01-08T16:26:37.765Z,6.80
2019-01-08T16:29:06.108Z,5.03
2019-01-08T16:31:36.049Z,4.47
2019-01-08T16:34:06.525Z,4.10
2019-01-08T16:36:34.871Z,2.20
2019-01-08T16:39:04.469Z,3.60
2019-01-08T16:41:33.718Z,4.03
2019-01-08T16:44:10.575Z,2.37
2019-01-08T16:46:40.085Z,2.90
2019-01-08T16:49:08.441Z,2.57
2019-01-08T16:51:37.102Z,2.33
2019-01-08T16:54:05.446Z,2.50
2019-01-08T16:56:34.044Z,3.33
2019-01-08T16:59:05.861Z,3.40
2019-01-08T17:01:36.536Z,2.60
2019-01-08T17:04:11.956Z,2.20
2019-01-08T17:07:03.564Z,2.30
2019-01-08T17:09:31.498Z,3.40
2019-01-08T17:12:02.150Z,2.87
2019-01-08T17:14:30.773Z,2.43
2019-01-08T17:16:59.130Z,3.17
2019-01-08T17:19:28.966Z,2.43
2019-01-08T17:21:57.313Z,3.20
2019-01-08T17:24:25.645Z,4.53
2019-01-08T17:26:53.997Z,2.60
2019-01-08T17:29:22.328Z,6.87
2019-01-08T17:31:50.754Z,8.60
2019-01-08T17:34:19.095Z,2.83
2019-01-08T17:36:47.434Z,2.83
2019-01-08T17:39:15.788Z,3.10
2019-01-08T17:41:44.191Z,1.70
2019-01-08T17:44:12.537Z,3.03
2019-01-08T17:46:40.882Z,1.97
2019-01-08T17:49:09.222Z,3.13
2019-01-08T17:51:37.915Z,3.00
2019-01-08T17:54:06.280Z,2.27
2019-01-08T17:56:35.063Z,3.63
2019-01-08T17:59:05.009Z,2.67
2019-01-08T18:01:33.349Z,2.40
2019-01-08T18:04:01.752Z,3.47
2019-01-08T18:06:30.106Z,2.63
2019-01-08T18:09:00.559Z,2.43
2019-01-08T18:11:32.466Z,1.97
2019-01-08T18:14:00.798Z,3.03
2019-01-08T18:16:29.218Z,2.30
2019-01-08T18:18:57.574Z,2.17
2019-01-08T18:21:25.926Z,1.90
2019-01-08T18:23:54.350Z,2.73
2019-01-08T18:26:22.761Z,2.53
2019-01-08T18:28:54.672Z,2.87
2019-01-08T18:31:28.279Z,2.63
2019-01-08T18:33:53.614Z,2.40
2019-01-08T18:36:22.034Z,2.77
2019-01-08T18:38:50.679Z,3.60
2019-01-08T18:41:26.441Z,2.70
2019-01-08T18:43:55.947Z,3.33
2019-01-08T18:46:28.733Z,2.73
2019-01-08T18:48:57.074Z,2.13
2019-01-08T18:51:29.077Z,3.83
2019-01-08T18:53:57.451Z,3.40
2019-01-08T18:56:25.803Z,2.37
2019-01-08T18:58:54.201Z,3.00
2019-01-08T19:01:25.904Z,2.90
2019-01-08T19:03:59.949Z,3.03
2019-01-08T19:06:26.806Z,3.60
2019-01-08T19:09:13.504Z,3.73
2019-01-08T19:11:48.834Z,2.97
2019-01-08T19:14:22.385Z,2.73
2019-01-08T19:16:51.825Z,3.87
2019-01-08T19:19:20.740Z,3.40
2019-01-08T19:21:50.712Z,2.83
2019-01-08T19:24:20.833Z,2.93
2019-01-08T19:26:49.173Z,2.90
2019-01-08T19:29:18.729Z,3.20
2019-01-08T19:31:48.243Z,2.53
2019-01-08T19:34:16.587Z,3.07
2019-01-08T19:36:46.086Z,3.10
2019-01-08T19:39:15.306Z,1.77
2019-01-08T19:41:43.645Z,3.67
2019-01-08T19:44:11.977Z,2.97
2019-01-08T19:46:40.334Z,2.23
2019-01-08T19:49:11.867Z,1.97
2019-01-08T19:51:43.057Z,1.50
2019-01-08T19:54:15.610Z,2.07
2019-01-08T19:56:43.956Z,1.57
2019-01-08T19:59:12.298Z,2.43
2019-01-08T20:01:42.278Z,2.60
2019-01-08T20:04:19.096Z,2.57
2019-01-08T20:06:50.982Z,3.03
2019-01-08T20:09:25.268Z,3.47
2019-01-08T20:11:49.361Z,2.47
2019-01-08T20:14:18.478Z,2.90
2019-01-08T20:16:46.817Z,3.03
2019-01-08T20:19:15.180Z,2.57
2019-01-08T20:21:44.598Z,3.90
2019-01-08T20:24:12.942Z,3.33
2019-01-08T20:26:41.269Z,3.43
2019-01-08T20:29:09.616Z,3.97
2019-01-08T20:31:39.736Z,2.87
2019-01-08T20:34:08.085Z,3.17
2019-01-08T20:36:36.433Z,3.67
2019-01-08T20:39:05.347Z,3.97
2019-01-08T20:41:35.273Z,3.63
2019-01-08T20:44:03.622Z,3.10
2019-01-08T20:46:33.341Z,2.67
2019-01-08T20:49:01.934Z,2.40
2019-01-08T20:51:30.267Z,3.83
2019-01-08T20:53:58.681Z,3.20
2019-01-08T20:56:27.089Z,2.47
2019-01-08T20:58:55.429Z,1.80
2019-01-08T21:01:24.920Z,2.87
2019-01-08T21:03:53.271Z,1.60
2019-01-08T21:06:21.589Z,1.93
2019-01-08T21:08:49.928Z,1.60
2019-01-08T21:11:18.253Z,1.87
2019-01-08T21:13:46.602Z,2.47
2019-01-08T21:16:16.359Z,2.93
2019-01-08T21:18:46.328Z,2.93
2019-01-08T21:21:14.659Z,2.43
2019-01-08T21:23:43.010Z,3.00
2019-01-08T21:26:11.350Z,2.53
2019-01-08T21:28:41.333Z,3.20
2019-01-08T21:31:10.738Z,2.20
2019-01-08T21:33:39.156Z,2.93
2019-01-08T21:36:07.584Z,2.63
2019-01-08T21:38:36.287Z,2.47
2019-01-08T21:41:05.338Z,2.77
2019-01-08T21:43:34.946Z,3.57
2019-01-08T21:46:03.282Z,2.93
2019-01-08T21:48:31.870Z,2.83
2019-01-08T21:51:01.214Z,2.60
2019-01-08T21:53:29.617Z,1.57
2019-01-08T21:55:58.113Z,2.37
2019-01-08T21:58:28.010Z,2.27
2019-01-08T22:00:56.426Z,1.80
2019-01-08T22:03:24.752Z,1.90
2019-01-08T22:05:56.792Z,2.47
2019-01-08T22:08:25.145Z,2.70
2019-01-08T22:10:56.279Z,1.90
2019-01-08T22:13:24.612Z,1.80
2019-01-08T22:15:55.182Z,1.57
2019-01-08T22:18:23.511Z,1.03
2019-01-08T22:20:51.848Z,2.30
2019-01-08T22:23:20.195Z,1.93
2019-01-08T22:25:48.528Z,2.33
2019-01-08T22:28:18.312Z,2.27
2019-01-08T22:30:48.984Z,2.33
2019-01-08T22:33:20.050Z,2.17
2019-01-08T22:35:48.393Z,2.63
2019-01-08T22:38:16.797Z,2.70
2019-01-08T22:40:45.148Z,2.77
2019-01-08T22:43:13.576Z,2.53
2019-01-08T22:45:41.909Z,2.63
2019-01-08T22:48:10.254Z,2.90
2019-01-08T22:50:38.593Z,2.70
2019-01-08T22:53:13.744Z,3.53
2019-01-08T22:55:43.933Z,3.07
2019-01-08T22:58:14.013Z,2.67
2019-01-08T23:00:47.902Z,2.60
2019-01-08T23:03:24.565Z,2.70
2019-01-08T23:05:53.157Z,2.23
2019-01-08T23:08:21.877Z,2.50
2019-01-08T23:10:50.441Z,1.77
2019-01-08T23:13:19.089Z,2.70
2019-01-08T23:15:47.803Z,2.50
2019-01-08T23:18:16.369Z,2.37
2019-01-08T23:20:44.871Z,1.60
2019-01-08T23:23:15.062Z,1.60
2019-01-08T23:25:43.537Z,1.83
2019-01-08T23:28:11.945Z,2.63
2019-01-08T23:30:40.286Z,1.70
2019-01-08T23:33:09.928Z,2.33
2019-01-08T23:35:42.069Z,2.20
2019-01-08T23:38:13.509Z,2.00
2019-01-08T23:40:43.426Z,2.10
2019-01-08T23:43:14.516Z,1.87
2019-01-08T23:45:42.857Z,1.80
2019-01-08T23:48:11.181Z,1.50
2019-01-08T23:50:39.526Z,1.20
2019-01-08T23:53:08.538Z,1.97
2019-01-08T23:55:37.942Z,0.90
2019-01-08T23:58:08.053Z,0.97
